Time;durP1;ratioP1;P1;durP2;ratioP2;P2;SDS_P1;SDS_P2;PMS_P1;PMS_P2;Temp;Humidity;BMP_temperature;BMP_pressure;BME280_temperature;BME280_humidity;BME280_pressure;Samples;Min_cycle;Max_cycle;Signal;HPM_P1;HPM_P2
2023/05/28 00:02:04;;;;;;;4.32;2.85;;;;;;;20.43;62.08;98473.03;5017036;28;20417;-73
2023/05/28 00:04:29;;;;;;;3.72;2.67;;;;;;;20.40;61.42;98449.53;5033562;28;20037;-72
2023/05/28 00:06:55;;;;;;;6.43;2.78;;;;;;;20.39;61.31;98461.13;5033379;28;20057;-73
2023/05/28 00:09:21;;;;;;;3.53;2.60;;;;;;;20.40;61.26;98463.59;5034765;28;20064;-72
2023/05/28 00:11:47;;;;;;;4.05;2.92;;;;;;;20.39;60.96;98461.94;5050071;28;20037;-72
2023/05/28 00:14:12;;;;;;;7.32;2.78;;;;;;;20.38;60.98;98459.50;5017082;28;20036;-72
2023/05/28 00:16:40;;;;;;;4.47;2.80;;;;;;;20.40;60.84;98454.84;5034618;28;20030;-72
2023/05/28 00:19:06;;;;;;;4.43;2.53;;;;;;;20.38;60.89;98476.25;5033644;28;20067;-72
2023/05/28 00:21:36;;;;;;;4.93;2.63;;;;;;;20.38;60.57;98470.94;5033522;28;20405;-72
2023/05/28 00:24:01;;;;;;;5.05;2.88;;;;;;;20.36;60.61;98462.31;5033371;28;20033;-72
2023/05/28 00:26:27;;;;;;;5.22;3.22;;;;;;;20.35;60.90;98452.75;5049490;28;20571;-72
2023/05/28 00:28:52;;;;;;;3.53;2.65;;;;;;;20.33;60.77;98438.84;5066244;28;20034;-72
2023/05/28 00:31:18;;;;;;;4.43;2.60;;;;;;;20.32;60.73;98436.38;5032889;28;20025;-72
2023/05/28 00:33:43;;;;;;;5.68;2.78;;;;;;;20.31;60.84;98432.91;5017036;28;20530;-72
2023/05/28 00:36:10;;;;;;;4.25;2.85;;;;;;;20.30;61.31;98430.44;5046549;28;20400;-72
2023/05/28 00:38:36;;;;;;;4.05;2.83;;;;;;;20.33;61.04;98438.03;5036279;28;20450;-72
2023/05/28 00:41:01;;;;;;;4.38;3.00;;;;;;;20.32;61.20;98428.44;5020089;28;20041;-72
2023/05/28 00:43:27;;;;;;;4.65;2.75;;;;;;;20.30;61.11;98430.44;5054007;28;20103;-72
2023/05/28 00:45:52;;;;;;;5.72;2.95;;;;;;;20.30;61.49;98431.25;5052784;28;20087;-72
2023/05/28 00:48:18;;;;;;;5.22;2.85;;;;;;;20.29;61.32;98429.63;5036041;28;20036;-72
2023/05/28 00:50:43;;;;;;;3.63;2.92;;;;;;;20.23;61.55;98417.13;5035868;28;20052;-73
2023/05/28 00:53:09;;;;;;;5.82;3.05;;;;;;;20.27;61.61;98425.53;5035960;28;20424;-72
2023/05/28 00:55:35;;;;;;;6.38;3.10;;;;;;;20.25;61.53;98423.88;5036199;28;20041;-72
2023/05/28 00:58:05;;;;;;;5.78;2.90;;;;;;;20.25;61.73;98425.72;5052874;28;20027;-72
2023/05/28 01:00:31;;;;;;;3.97;2.80;;;;;;;20.21;61.89;98416.50;5036614;28;20553;-72
2023/05/28 01:02:57;;;;;;;4.05;2.80;;;;;;;20.21;62.28;98419.97;5019694;28;20075;-72
2023/05/28 01:05:23;;;;;;;6.45;3.22;;;;;;;20.22;62.32;98421.59;5053613;28;20033;-72
2023/05/28 01:07:48;;;;;;;4.10;3.00;;;;;;;20.20;62.50;98425.47;5051793;28;20036;-72
2023/05/28 01:10:14;;;;;;;5.10;3.83;;;;;;;20.20;62.49;98420.16;5035697;28;20029;-72
2023/05/28 01:12:39;;;;;;;7.70;4.25;;;;;;;20.17;62.43;98416.03;5052322;28;20063;-72
2023/05/28 01:15:06;;;;;;;7.20;4.18;;;;;;;20.14;62.81;98405.00;5035427;28;20044;-72
2023/05/28 01:17:32;;;;;;;6.28;4.15;;;;;;;20.13;62.89;98403.34;5019120;28;20095;-72
2023/05/28 01:19:57;;;;;;;7.90;3.85;;;;;;;20.12;62.89;98399.88;5035705;28;20128;-72
2023/05/28 01:22:27;;;;;;;7.28;3.90;;;;;;;20.10;62.71;98403.72;5051678;28;20095;-72
2023/05/28 01:24:53;;;;;;;5.28;3.80;;;;;;;20.09;62.95;98416.16;5052072;28;20033;-72
2023/05/28 01:27:19;;;;;;;4.38;3.50;;;;;;;20.08;63.08;98408.41;5035266;28;20044;-72
2023/05/28 01:29:45;;;;;;;5.30;3.03;;;;;;;20.04;62.66;98397.34;5018808;28;20504;-73
2023/05/28 01:32:10;;;;;;;4.70;3.33;;;;;;;20.02;62.68;98397.53;5051833;28;20037;-73
2023/05/28 01:34:36;;;;;;;5.78;3.30;;;;;;;19.99;62.53;98400.56;5018557;28;20040;-72
2023/05/28 01:37:02;;;;;;;7.43;3.08;;;;;;;19.99;62.75;98403.22;5051661;28;20047;-72
2023/05/28 01:39:30;;;;;;;5.22;2.67;;;;;;;19.96;62.53;98414.19;5035073;28;20078;-72
2023/05/28 01:41:56;;;;;;;4.85;3.00;;;;;;;19.96;62.66;98416.81;5035609;28;20078;-73
2023/05/28 01:44:22;;;;;;;6.53;2.92;;;;;;;19.96;62.31;98427.41;5034860;28;20033;-72
2023/05/28 01:46:49;;;;;;;4.60;2.70;;;;;;;19.93;62.47;98430.44;5035239;28;20514;-72
2023/05/28 01:49:14;;;;;;;4.70;2.60;;;;;;;19.95;62.51;98430.25;5034345;28;20044;-72
2023/05/28 01:51:40;;;;;;;4.35;2.50;;;;;;;19.92;62.29;98426.13;5051562;28;20033;-71
2023/05/28 01:54:05;;;;;;;3.10;2.30;;;;;;;19.94;62.35;98425.94;5051744;28;20033;-72
2023/05/28 01:56:31;;;;;;;3.10;2.45;;;;;;;19.91;62.50;98424.50;5034803;28;20507;-72
2023/05/28 01:58:56;;;;;;;3.13;2.17;;;;;;;19.92;62.67;98412.88;5051445;28;20036;-72
2023/05/28 02:01:29;;;;;;;3.97;2.20;;;;;;;19.92;62.50;98415.53;5035485;28;20116;-71
2023/05/28 02:03:58;;;;;;;2.63;1.90;;;;;;;19.96;62.46;98429.25;5035067;28;20039;-72
2023/05/28 02:06:24;;;;;;;3.22;2.08;;;;;;;19.96;62.67;98429.25;5051396;28;20025;-72
2023/05/28 02:08:50;;;;;;;3.60;2.00;;;;;;;19.92;62.56;98433.28;5018062;28;20040;-72
2023/05/28 02:11:16;;;;;;;4.60;2.00;;;;;;;19.90;62.60;98427.34;5034541;28;20480;-72
2023/05/28 02:13:41;;;;;;;3.10;1.90;;;;;;;19.92;62.93;98446.50;5034621;28;20167;-72
2023/05/28 02:16:07;;;;;;;2.65;1.92;;;;;;;19.86;62.72;98435.66;5034093;28;20074;-72
2023/05/28 02:18:36;;;;;;;3.60;1.85;;;;;;;19.87;62.84;98447.88;5052120;28;20079;-72
2023/05/28 02:21:01;;;;;;;6.78;1.83;;;;;;;19.82;62.79;98444.16;5034857;28;20067;-72
2023/05/28 02:23:27;;;;;;;3.72;2.10;;;;;;;19.82;62.76;98458.22;5018056;28;20041;-72
2023/05/28 02:25:52;;;;;;;4.13;2.17;;;;;;;19.80;62.92;98449.63;5051114;28;20060;-72
2023/05/28 02:28:18;;;;;;;3.78;2.08;;;;;;;19.80;63.11;98448.81;5051381;28;20067;-72
2023/05/28 02:30:43;;;;;;;3.67;1.92;;;;;;;19.76;63.30;98442.19;5050955;28;20037;-72
2023/05/28 02:33:09;;;;;;;6.10;1.98;;;;;;;19.78;63.44;98450.81;5034268;28;20033;-73
2023/05/28 02:35:34;;;;;;;3.65;2.13;;;;;;;19.77;63.49;98449.19;5052255;28;20046;-73
2023/05/28 02:38:00;;;;;;;3.97;2.38;;;;;;;19.75;63.68;98451.13;5052143;28;20021;-73
2023/05/28 02:40:25;;;;;;;3.92;2.58;;;;;;;19.76;64.06;98455.44;5034697;28;20087;-73
2023/05/28 02:42:51;;;;;;;6.55;2.15;;;;;;;19.74;63.79;98454.81;5050954;28;20091;-72
2023/05/28 02:45:16;;;;;;;2.50;2.15;;;;;;;19.71;63.82;98446.22;5051361;28;20041;-73
2023/05/28 02:47:42;;;;;;;4.07;2.20;;;;;;;19.70;63.95;98439.28;5051042;28;20033;-73
2023/05/28 02:50:08;;;;;;;3.00;2.10;;;;;;;19.74;64.02;98447.69;5050691;28;20477;-73
2023/05/28 02:52:33;;;;;;;2.97;2.47;;;;;;;19.73;64.16;98445.22;5051871;28;20025;-73
2023/05/28 02:54:59;;;;;;;3.65;2.20;;;;;;;19.74;64.39;98441.56;5050803;28;20045;-73
2023/05/28 02:57:25;;;;;;;3.80;2.33;;;;;;;19.73;64.24;98442.56;5050518;28;20469;-73
2023/05/28 02:59:51;;;;;;;5.38;2.25;;;;;;;19.74;64.13;98446.88;5019135;28;20079;-73
2023/05/28 03:02:16;;;;;;;3.15;2.30;;;;;;;19.73;64.32;98442.56;5037874;28;20068;-73
2023/05/28 03:04:42;;;;;;;2.65;2.13;;;;;;;19.74;64.46;98439.75;5038127;28;20029;-74
2023/05/28 03:07:08;;;;;;;3.83;2.45;;;;;;;19.77;64.11;98446.53;5054448;28;20087;-72
2023/05/28 03:09:36;;;;;;;3.10;2.20;;;;;;;19.73;64.15;98450.50;5054607;28;20032;-73
2023/05/28 03:12:01;;;;;;;3.15;2.35;;;;;;;19.76;64.06;98452.78;5038376;28;20029;-72
2023/05/28 03:14:27;;;;;;;3.65;2.03;;;;;;;19.78;64.19;98448.16;5038336;28;20383;-73
2023/05/28 03:16:52;;;;;;;4.13;1.80;;;;;;;19.78;63.96;98454.28;5054395;28;20029;-72
2023/05/28 03:19:18;;;;;;;3.50;2.30;;;;;;;19.78;63.84;98450.81;5054316;28;20091;-73
2023/05/28 03:21:43;;;;;;;5.72;2.33;;;;;;;19.76;63.96;98436.91;5055579;28;20025;-72
2023/05/28 03:24:09;;;;;;;3.30;2.30;;;;;;;19.79;64.12;98453.28;5038058;28;20114;-72
2023/05/28 03:26:36;;;;;;;4.60;2.03;;;;;;;19.80;64.32;98454.13;5037408;28;20060;-72
2023/05/28 03:29:01;;;;;;;3.47;2.53;;;;;;;19.82;64.46;98455.56;5055012;28;20032;-72
2023/05/28 03:31:28;;;;;;;6.25;2.40;;;;;;;19.84;64.27;98455.38;5054893;28;20043;-72
2023/05/28 03:33:53;;;;;;;4.32;2.53;;;;;;;19.85;64.43;98457.03;5037705;28;20044;-72
2023/05/28 03:36:18;;;;;;;4.50;2.20;;;;;;;19.87;64.34;98473.56;5054058;28;20076;-73
2023/05/28 03:38:44;;;;;;;6.47;2.50;;;;;;;19.87;64.13;98468.25;5037417;28;20025;-72
2023/05/28 03:41:10;;;;;;;3.83;2.67;;;;;;;19.86;64.07;98470.09;5055295;28;20063;-72
2023/05/28 03:43:36;;;;;;;2.97;2.33;;;;;;;19.83;64.21;98465.16;5037305;28;20040;-72
2023/05/28 03:46:02;;;;;;;3.60;2.55;;;;;;;19.88;64.10;98480.50;5053983;28;20039;-72
2023/05/28 03:48:27;;;;;;;4.30;2.60;;;;;;;19.91;64.41;98479.28;5053788;28;20025;-71
2023/05/28 03:50:53;;;;;;;6.00;2.50;;;;;;;19.90;64.46;98467.06;5053827;28;20037;-72
2023/05/28 03:53:18;;;;;;;3.70;2.40;;;;;;;19.95;64.50;98476.09;5053683;28;20102;-71
2023/05/28 03:55:44;;;;;;;3.70;2.38;;;;;;;20.00;64.50;98471.09;5036987;28;20048;-71
2023/05/28 03:58:14;;;;;;;4.47;2.28;;;;;;;20.03;64.63;98475.19;5053985;28;20060;-71
2023/05/28 04:00:39;;;;;;;4.45;2.58;;;;;;;20.06;64.38;98472.16;5053578;28;20029;-71
2023/05/28 04:03:05;;;;;;;2.72;2.10;;;;;;;20.05;64.42;98471.34;5054529;28;20503;-72
2023/05/28 04:05:30;;;;;;;3.30;2.15;;;;;;;20.08;64.42;98472.78;5036910;28;20044;-71
2023/05/28 04:07:56;;;;;;;3.92;2.22;;;;;;;20.08;64.05;98472.78;5053423;28;20067;-71
2023/05/28 04:10:21;;;;;;;3.33;1.77;;;;;;;20.09;64.14;98476.28;5036835;28;20032;-71
2023/05/28 04:12:47;;;;;;;2.85;1.73;;;;;;;20.08;64.17;98477.28;5035856;28;20459;-74
2023/05/28 04:15:12;;;;;;;3.13;1.60;;;;;;;20.08;63.92;98469.34;5036687;28;20044;-75
2023/05/28 04:17:38;;;;;;;2.08;1.45;;;;;;;20.10;64.10;98478.75;5036890;28;20080;-73
2023/05/28 04:20:06;;;;;;;5.03;1.70;;;;;;;20.13;63.83;98477.53;5053332;28;20043;-72
2023/05/28 04:22:31;;;;;;;1.52;1.20;;;;;;;20.14;63.69;98471.25;5054422;28;20072;-72
2023/05/28 04:24:57;;;;;;;2.05;1.40;;;;;;;20.18;63.77;98475.19;5052999;28;20053;-72
2023/05/28 04:27:23;;;;;;;2.22;1.40;;;;;;;20.18;63.70;98469.88;5036226;28;20507;-75
2023/05/28 04:29:49;;;;;;;1.52;1.00;;;;;;;20.25;63.41;98479.53;5036687;28;20033;-74
2023/05/28 04:32:14;;;;;;;2.33;1.23;;;;;;;20.38;62.95;98473.59;5036489;28;20499;-74
2023/05/28 04:34:42;;;;;;;1.58;1.00;;;;;;;20.59;62.34;98483.41;5052748;28;20025;-71
2023/05/28 04:37:08;;;;;;;2.42;1.30;;;;;;;20.81;61.52;98482.59;5052588;28;20032;-74
2023/05/28 04:39:34;;;;;;;2.13;1.20;;;;;;;20.89;61.49;98482.47;5052980;28;20027;-72
2023/05/28 04:42:03;;;;;;;2.55;1.10;;;;;;;21.02;60.94;98487.91;5036207;28;20075;-73
2023/05/28 04:44:30;;;;;;;1.40;0.90;;;;;;;21.04;60.94;98477.13;5036592;28;20037;-73
2023/05/28 04:46:58;;;;;;;1.80;1.02;;;;;;;21.13;61.08;98478.63;5020027;28;20476;-74
2023/05/28 04:49:24;;;;;;;1.45;0.98;;;;;;;21.21;60.63;98485.63;5036578;28;20032;-74
2023/05/28 04:51:50;;;;;;;1.75;0.90;;;;;;;21.20;60.53;98486.63;5053042;28;20041;-75
2023/05/28 04:54:15;;;;;;;1.40;0.93;;;;;;;21.21;60.40;98493.59;5036045;28;20033;-74
2023/05/28 04:56:41;;;;;;;2.67;1.00;;;;;;;21.20;60.07;98492.75;5036411;28;20033;-74
2023/05/28 04:59:09;;;;;;;1.55;1.10;;;;;;;21.21;60.35;98488.28;5035384;28;20040;-81
2023/05/28 05:01:35;;;;;;;2.40;1.15;;;;;;;21.27;60.29;98498.16;5020445;28;20045;-78
2023/05/28 05:04:01;;;;;;;1.50;0.88;;;;;;;21.32;59.66;98495.72;5036053;28;20100;-77
2023/05/28 05:06:27;;;;;;;1.90;1.00;;;;;;;21.35;60.15;98497.16;5052321;28;20115;-75
2023/05/28 05:08:53;;;;;;;2.92;1.00;;;;;;;21.37;60.34;98498.63;5035697;28;20028;-76
2023/05/28 05:11:20;;;;;;;5.97;1.75;;;;;;;21.45;63.23;98498.47;5035925;28;20032;-74
2023/05/28 05:13:45;;;;;;;2.65;1.30;;;;;;;21.56;61.10;98491.03;5052339;28;20043;-73
2023/05/28 05:16:11;;;;;;;6.40;1.40;;;;;;;21.60;60.49;98489.63;5035366;28;20036;-74
2023/05/28 05:18:36;;;;;;;4.45;1.23;;;;;;;21.63;60.29;98495.38;5019926;28;20091;-85
2023/05/28 05:21:02;;;;;;;3.92;1.40;;;;;;;21.65;60.36;98493.34;5020519;28;20475;-84
2023/05/28 05:23:27;;;;;;;2.97;1.30;;;;;;;21.70;60.19;98492.75;5053163;28;20103;-83
2023/05/28 05:25:54;;;;;;;2.17;1.23;;;;;;;21.69;59.57;98483.13;5036482;28;20053;-85
2023/05/28 05:28:19;;;;;;;2.78;1.35;;;;;;;21.78;59.76;98497.91;5018944;28;20506;-81
2023/05/28 05:30:45;;;;;;;2.50;1.10;;;;;;;21.76;59.20;98489.31;5035678;28;20033;-77
2023/05/28 05:33:15;;;;;;;3.55;1.17;;;;;;;21.82;59.10;98499.19;5053520;28;20495;-82
2023/05/28 05:35:40;;;;;;;2.08;1.27;;;;;;;21.84;59.39;98502.44;5036023;28;20037;-78
2023/05/28 05:38:06;;;;;;;3.13;1.20;;;;;;;21.86;58.96;98500.41;5037744;28;20032;-86
2023/05/28 05:40:32;;;;;;;1.70;1.10;;;;;;;21.87;58.49;98495.94;5053430;28;20449;-77
2023/05/28 05:42:58;;;;;;;10.05;2.17;;;;;;;21.97;61.72;98496.38;5051536;28;20055;-78
2023/05/28 05:45:23;;;;;;;10.23;2.20;;;;;;;22.08;63.00;98496.84;5038003;28;20111;-82
2023/05/28 05:47:50;;;;;;;19.73;2.38;;;;;;;22.38;65.42;98495.56;5038910;28;20029;-79
2023/05/28 05:50:16;;;;;;;11.10;2.00;;;;;;;22.53;62.14;98495.44;5035190;28;20051;-75
2023/05/28 05:52:41;;;;;;;6.25;2.00;;;;;;;22.63;60.78;98494.19;5035294;28;20059;-77
2023/05/28 05:55:10;;;;;;;13.75;2.40;;;;;;;22.86;63.32;98502.66;5052187;28;20036;-71
2023/05/28 05:57:36;;;;;;;7.18;2.40;;;;;;;23.24;62.33;98506.63;5051195;28;20499;-70
2023/05/28 06:00:06;;;;;;;23.55;2.20;;;;;;;23.48;61.00;98506.00;5051594;28;20033;-68
2023/05/28 06:02:32;;;;;;;14.25;2.15;;;;;;;23.67;59.39;98498.16;5017668;28;20123;-68
2023/05/28 06:04:57;;;;;;;13.48;2.30;;;;;;;23.84;58.38;98502.06;5046892;28;20551;-69
2023/05/28 06:07:23;;;;;;;26.10;2.40;;;;;;;23.92;57.30;98501.03;5034400;28;20033;-69
2023/05/28 06:09:49;;;;;;;9.63;1.77;;;;;;;23.99;57.07;98503.69;5052198;28;20518;-67
2023/05/28 06:12:15;;;;;;;15.45;2.22;;;;;;;24.14;57.17;98506.91;5051203;28;20064;-69
2023/05/28 06:14:41;;;;;;;5.80;1.90;;;;;;;24.21;56.36;98496.25;5016560;28;20043;-69
2023/05/28 06:17:06;;;;;;;9.80;2.10;;;;;;;24.22;56.02;98505.84;5033832;28;20440;-72
2023/05/28 06:19:33;;;;;;;10.73;2.92;;;;;;;24.16;55.21;98504.88;5034861;28;20044;-68
2023/05/28 06:21:59;;;;;;;15.90;3.27;;;;;;;24.07;53.01;98510.63;5052254;28;20033;-66
2023/05/28 06:24:24;;;;;;;14.50;2.67;;;;;;;23.95;53.29;98513.13;5050583;28;20106;-68
2023/05/28 06:26:50;;;;;;;7.43;2.55;;;;;;;23.80;52.54;98514.16;5052126;28;20049;-68
2023/05/28 06:29:16;;;;;;;8.45;2.20;;;;;;;23.68;52.22;98513.16;5033988;28;20036;-67
2023/05/28 06:31:41;;;;;;;10.18;2.10;;;;;;;23.60;53.28;98516.03;5034275;28;20036;-67
2023/05/28 06:34:07;;;;;;;8.80;1.80;;;;;;;23.53;53.21;98505.38;5017408;28;20396;-69
2023/05/28 06:36:33;;;;;;;10.95;2.15;;;;;;;23.54;53.42;98516.84;5051150;28;20033;-68
2023/05/28 06:38:58;;;;;;;11.35;2.10;;;;;;;23.53;53.59;98513.38;5050719;28;20055;-69
2023/05/28 06:41:25;;;;;;;8.85;2.10;;;;;;;23.55;54.09;98521.97;5051988;28;20045;-68
2023/05/28 06:43:50;;;;;;;6.57;1.80;;;;;;;23.57;54.62;98513.78;5051845;28;20078;-67
2023/05/28 06:46:16;;;;;;;7.68;2.10;;;;;;;23.60;54.99;98511.50;5034174;28;20029;-68
2023/05/28 06:48:41;;;;;;;8.65;2.28;;;;;;;23.64;55.29;98517.25;5050542;28;20037;-69
2023/05/28 06:51:07;;;;;;;11.70;2.10;;;;;;;23.65;54.57;98519.69;5031482;28;20033;-69
2023/05/28 06:53:32;;;;;;;4.63;1.75;;;;;;;23.65;54.74;98510.88;5051164;28;20033;-69
2023/05/28 06:55:58;;;;;;;7.00;1.95;;;;;;;23.70;54.15;98524.41;5033099;28;20037;-70
2023/05/28 06:58:23;;;;;;;4.85;1.80;;;;;;;23.73;53.93;98520.53;5016563;28;20048;-74
2023/05/28 07:00:49;;;;;;;8.10;1.90;;;;;;;23.73;54.42;98515.19;5032354;28;20040;-71
2023/05/28 07:03:14;;;;;;;14.65;2.03;;;;;;;23.76;54.52;98514.78;5013183;28;20144;-68
2023/05/28 07:05:40;;;;;;;25.42;2.58;;;;;;;23.84;54.69;98519.91;5013458;28;20110;-73
2023/05/28 07:08:06;;;;;;;22.15;2.65;;;;;;;23.89;53.99;98513.97;4996992;28;20382;-77
2023/05/28 07:10:31;;;;;;;17.45;2.45;;;;;;;23.94;53.67;98508.81;5029844;28;20030;-74
2023/05/28 07:12:57;;;;;;;26.20;2.58;;;;;;;24.05;53.22;98508.16;5029818;28;20037;-71
2023/05/28 07:15:22;;;;;;;27.02;3.90;;;;;;;24.26;52.67;98511.56;5031004;28;20555;-70
2023/05/28 07:17:48;;;;;;;18.40;3.15;;;;;;;24.85;51.36;98507.81;5028931;28;20033;-67
2023/05/28 07:20:13;;;;;;;11.52;2.58;;;;;;;25.73;48.22;98503.44;5030968;28;20041;-70
2023/05/28 07:22:39;;;;;;;7.97;2.80;;;;;;;26.17;46.78;98501.56;5012320;28;20030;-77
2023/05/28 07:25:06;;;;;;;7.20;2.30;;;;;;;27.23;44.69;98490.44;5013925;28;20199;-78
2023/05/28 07:27:31;;;;;;;8.15;2.33;;;;;;;27.19;44.67;98499.16;5029466;28;20049;-73
2023/05/28 07:29:56;;;;;;;15.05;2.38;;;;;;;27.35;44.57;98495.00;5013323;28;20451;-74
2023/05/28 07:32:22;;;;;;;13.52;2.72;;;;;;;27.53;43.78;98496.75;5030400;28;20029;-70
2023/05/28 07:34:47;;;;;;;15.23;3.67;;;;;;;27.69;43.39;98492.53;5029541;28;20087;-68
2023/05/28 07:37:13;;;;;;;17.48;4.00;;;;;;;27.79;43.51;98492.78;5030955;28;20065;-68
2023/05/28 07:39:38;;;;;;;20.70;4.97;;;;;;;27.70;43.67;98486.94;5029574;28;20034;-67
2023/05/28 07:42:06;;;;;;;19.30;6.68;;;;;;;27.77;44.01;98494.88;5029408;28;20103;-69
2023/05/28 07:44:31;;;;;;;15.40;4.88;;;;;;;27.91;43.34;98490.06;5012767;28;20512;-69
2023/05/28 07:46:57;;;;;;;17.85;5.25;;;;;;;27.87;43.11;98475.50;5031325;28;20088;-68
2023/05/28 07:49:22;;;;;;;21.85;4.43;;;;;;;27.82;43.19;98486.94;5033111;28;20042;-68
2023/05/28 07:51:48;;;;;;;8.75;3.67;;;;;;;27.84;42.47;98484.84;5033554;28;20087;-69
2023/05/28 07:54:14;;;;;;;7.63;3.33;;;;;;;27.76;42.54;98479.84;5033923;28;20071;-68
2023/05/28 07:56:40;;;;;;;9.30;3.42;;;;;;;27.61;42.35;98474.94;5032874;28;20029;-71
2023/05/28 07:59:05;;;;;;;10.45;3.17;;;;;;;27.46;42.96;98478.09;5032572;28;20060;-77
2023/05/28 08:01:31;;;;;;;11.65;3.10;;;;;;;27.38;43.58;98487.31;5020454;28;20041;-68
2023/05/28 08:03:56;;;;;;;6.80;3.13;;;;;;;27.43;43.47;98481.25;5036624;28;20032;-71
2023/05/28 08:06:22;;;;;;;8.57;3.13;;;;;;;27.27;43.11;98480.06;5035953;28;20098;-72
2023/05/28 08:08:47;;;;;;;11.48;2.88;;;;;;;27.09;43.95;98483.66;5036128;28;20079;-69
2023/05/28 08:11:14;;;;;;;9.85;3.17;;;;;;;26.97;44.26;98485.47;5053926;28;20060;-69
2023/05/28 08:13:40;;;;;;;8.50;2.60;;;;;;;26.86;44.79;98484.41;5052786;28;20035;-70
2023/05/28 08:16:06;;;;;;;8.82;3.03;;;;;;;27.11;44.38;98476.19;5052486;28;20095;-70
2023/05/28 08:18:32;;;;;;;8.95;2.78;;;;;;;27.69;43.62;98476.44;5052027;28;20421;-71
2023/05/28 08:20:57;;;;;;;8.05;2.55;;;;;;;27.43;43.88;98474.00;5053707;28;20029;-73
2023/05/28 08:23:22;;;;;;;8.90;2.63;;;;;;;27.14;44.23;98470.38;5035736;28;20037;-74
2023/05/28 08:25:48;;;;;;;6.07;2.65;;;;;;;26.91;44.99;98473.81;5019216;28;20119;-73
2023/05/28 08:28:16;;;;;;;8.57;2.80;;;;;;;26.67;45.65;98467.59;5053091;28;20499;-75
2023/05/28 08:30:42;;;;;;;9.38;2.70;;;;;;;26.58;46.14;98460.91;5019186;28;20483;-72
2023/05/28 08:33:07;;;;;;;5.63;2.70;;;;;;;26.42;46.23;98457.81;5036138;28;20065;-72
2023/05/28 08:35:33;;;;;;;11.15;3.30;;;;;;;26.28;46.94;98451.84;5053345;28;20044;-71
2023/05/28 08:37:58;;;;;;;12.50;3.67;;;;;;;26.14;48.13;98459.22;5052929;28;20029;-71
2023/05/28 08:40:24;;;;;;;13.75;3.83;;;;;;;25.96;48.40;98461.84;5052612;28;20095;-74
2023/05/28 08:42:49;;;;;;;18.25;3.90;;;;;;;25.81;49.38;98467.59;5051965;28;20029;-71
2023/05/28 08:45:15;;;;;;;21.92;4.22;;;;;;;25.67;49.99;98461.56;5054296;28;20484;-70
2023/05/28 08:47:40;;;;;;;13.35;3.85;;;;;;;25.60;50.40;98461.63;5018887;28;20048;-70
2023/05/28 08:50:11;;;;;;;15.40;3.85;;;;;;;25.53;50.19;98466.22;5036233;28;20037;-71
2023/05/28 08:52:36;;;;;;;18.48;3.95;;;;;;;25.52;50.58;98464.56;5053310;28;20041;-69
2023/05/28 08:55:03;;;;;;;18.55;4.15;;;;;;;25.56;50.29;98465.78;5036028;28;20045;-69
2023/05/28 08:57:29;;;;;;;14.75;3.78;;;;;;;25.57;50.85;98455.91;5053436;28;20107;-70
2023/05/28 08:59:55;;;;;;;12.85;4.30;;;;;;;25.57;50.37;98463.91;5035498;28;20040;-70
2023/05/28 09:02:24;;;;;;;7.60;3.47;;;;;;;25.60;50.47;98458.97;5053538;28;20035;-70
2023/05/28 09:04:50;;;;;;;8.88;3.60;;;;;;;25.88;49.83;98462.16;5052537;28;20029;-70
2023/05/28 09:07:16;;;;;;;9.40;3.65;;;;;;;26.13;49.91;98465.59;5019393;28;20388;-69
2023/05/28 09:09:41;;;;;;;6.97;3.28;;;;;;;26.29;49.89;98449.97;5053593;28;20163;-71
2023/05/28 09:12:11;;;;;;;9.88;3.20;;;;;;;26.33;49.78;98449.28;5053515;28;20029;-71
2023/05/28 09:14:40;;;;;;;7.10;2.83;;;;;;;26.43;49.61;98458.66;5052230;28;20036;-72
2023/05/28 09:17:08;;;;;;;7.78;2.90;;;;;;;26.41;49.74;98458.03;5052095;28;20047;-71
2023/05/28 09:19:34;;;;;;;;;;;;;;;26.23;50.29;98467.72;5036191;28;20064;-69
2023/05/28 09:22:01;;;;;;;9.02;3.13;;;;;;;26.15;50.02;98474.19;5052988;28;19987;-69
2023/05/28 09:24:26;;;;;;;6.70;3.07;;;;;;;26.07;50.17;98466.50;5051929;28;20040;-69
2023/05/28 09:26:55;;;;;;;7.40;3.20;;;;;;;26.02;50.12;98466.34;5051624;28;20287;-71
2023/05/28 09:29:22;;;;;;;10.40;3.10;;;;;;;25.99;49.74;98458.78;5051773;28;20027;-69
2023/05/28 09:31:59;;;;;;;7.95;3.35;;;;;;;26.04;49.93;98461.59;5019224;28;20344;-70
2023/05/28 09:34:31;;;;;;;7.35;3.05;;;;;;;26.37;49.75;98465.72;5035359;28;20186;-69
2023/05/28 09:37:03;;;;;;;8.15;3.10;;;;;;;26.68;49.93;98453.19;5051518;28;20060;-69
2023/05/28 09:39:28;;;;;;;8.00;3.50;;;;;;;26.85;49.32;98443.44;5051360;28;20086;-69
2023/05/28 09:42:09;;;;;;;10.65;4.10;;;;;;;26.79;49.66;98451.53;5051467;28;20045;-70
2023/05/28 09:44:35;;;;;;;6.28;3.45;;;;;;;26.73;49.25;98447.94;5052931;28;20029;-70
2023/05/28 09:47:00;;;;;;;8.18;3.70;;;;;;;26.64;49.35;98442.06;5052606;28;20377;-70
2023/05/28 09:49:28;;;;;;;10.27;4.13;;;;;;;26.53;49.40;98440.16;5034812;28;20024;-70
2023/05/28 09:51:54;;;;;;;7.33;3.77;;;;;;;26.49;49.37;98439.81;5051179;28;20028;-70
2023/05/28 09:54:19;;;;;;;8.40;3.15;;;;;;;26.39;49.64;98455.59;5034912;28;20033;-70
2023/05/28 09:56:45;;;;;;;7.47;3.58;;;;;;;26.28;50.05;98449.16;5034936;28;20025;-72
2023/05/28 09:59:10;;;;;;;7.35;3.00;;;;;;;26.18;49.75;98449.69;5051774;28;20151;-69
2023/05/28 10:01:41;;;;;;;7.43;3.30;;;;;;;26.11;50.08;98450.81;5034772;28;20473;-68
2023/05/28 10:04:11;;;;;;;7.20;3.03;;;;;;;26.08;49.48;98448.59;5050875;28;20049;-68
2023/05/28 10:06:38;;;;;;;10.32;3.30;;;;;;;26.03;49.61;98449.28;5050966;28;20049;-69
2023/05/28 10:09:04;;;;;;;6.55;2.97;;;;;;;25.99;49.35;98456.09;5034212;28;20057;-70
2023/05/28 10:11:41;;;;;;;7.03;3.35;;;;;;;25.89;49.70;98456.59;5051423;28;20110;-70
2023/05/28 10:14:07;;;;;;;6.53;3.40;;;;;;;25.95;49.82;98457.53;5051392;28;20503;-69
2023/05/28 10:16:33;;;;;;;7.38;3.25;;;;;;;26.16;49.10;98470.50;5034517;28;20048;-69
2023/05/28 10:18:58;;;;;;;8.40;3.35;;;;;;;26.49;48.36;98457.75;5051082;28;20083;-70
2023/05/28 10:21:24;;;;;;;9.18;3.10;;;;;;;26.88;47.28;98453.69;5051416;28;20029;-69
2023/05/28 10:23:50;;;;;;;8.32;3.20;;;;;;;26.93;47.17;98442.28;5034816;28;20067;-70
2023/05/28 10:26:15;;;;;;;10.48;3.70;;;;;;;27.00;46.76;98439.50;5034569;28;20057;-70
2023/05/28 10:28:41;;;;;;;6.45;3.10;;;;;;;27.10;46.14;98436.25;5051006;28;20025;-69
2023/05/28 10:31:10;;;;;;;6.70;3.07;;;;;;;27.10;45.95;98441.59;5034475;28;20059;-71
2023/05/28 10:33:41;;;;;;;6.93;2.97;;;;;;;27.05;45.93;98451.13;5034094;28;20037;-69
2023/05/28 10:36:14;;;;;;;8.30;2.97;;;;;;;27.01;45.57;98444.63;5050721;28;20033;-69
2023/05/28 10:38:52;;;;;;;7.90;3.08;;;;;;;27.18;45.53;98455.44;5051968;28;20067;-69
2023/05/28 10:41:21;;;;;;;5.32;3.05;;;;;;;27.23;45.96;98438.69;5051019;28;20396;-70
2023/05/28 10:43:50;;;;;;;6.45;3.17;;;;;;;27.12;46.27;98439.50;5050711;28;20025;-69
2023/05/28 10:46:35;;;;;;;7.05;2.78;;;;;;;27.00;46.35;98426.91;5050591;28;20404;-70
2023/05/28 10:49:14;;;;;;;5.95;2.72;;;;;;;26.79;47.10;98436.31;5052193;28;20033;-69
2023/05/28 10:51:54;;;;;;;5.47;2.83;;;;;;;26.52;47.81;98460.75;5051955;28;20065;-70
2023/05/28 10:54:29;;;;;;;6.13;3.28;;;;;;;26.13;47.78;98508.38;5052145;28;20401;-70
2023/05/28 10:57:15;;;;;;;9.15;3.30;;;;;;;25.66;49.13;98480.50;5051857;28;20108;-69
2023/05/28 10:59:48;;;;;;;6.28;3.42;;;;;;;25.26;50.47;98474.44;5051791;28;20037;-69
2023/05/28 11:02:27;;;;;;;6.53;3.25;;;;;;;24.92;51.53;98457.06;5050646;28;20033;-69
2023/05/28 11:04:53;;;;;;;4.00;2.90;;;;;;;24.76;52.52;98454.91;5050831;28;20068;-70
2023/05/28 11:07:22;;;;;;;4.25;3.00;;;;;;;24.65;53.16;98449.22;5050516;28;20032;-70
2023/05/28 11:09:50;;;;;;;8.50;3.13;;;;;;;24.59;53.50;98446.59;5050087;28;20124;-70
2023/05/28 11:12:15;;;;;;;6.65;3.20;;;;;;;24.52;54.07;98446.63;5051645;28;20040;-70
2023/05/28 11:14:41;;;;;;;5.13;3.10;;;;;;;24.50;54.04;98441.50;5034375;28;20380;-70
2023/05/28 11:17:10;;;;;;;7.55;3.15;;;;;;;24.56;54.15;98451.34;5033772;28;20116;-70
2023/05/28 11:19:40;;;;;;;5.30;3.10;;;;;;;24.60;54.28;98441.06;5050604;28;20067;-71
2023/05/28 11:22:06;;;;;;;7.65;2.95;;;;;;;24.65;54.46;98443.88;5053645;28;20059;-70
2023/05/28 11:24:32;;;;;;;7.07;3.35;;;;;;;24.67;54.49;98436.50;5054275;28;20040;-69
2023/05/28 11:26:58;;;;;;;6.90;3.40;;;;;;;24.76;54.50;98431.69;5037620;28;20045;-70
2023/05/28 11:29:23;;;;;;;5.75;3.05;;;;;;;24.85;54.08;98441.09;5054126;28;20110;-70